ADDS METAR Data INFO
IDs: Format: Raw Decoded Include TAF

Data at: 0143 UTC 17 Oct 2017

KCUL 170135Z AUTO 00000KT 10SM CLR 07/05 A3032 RMK AO2 T00690047
KCUL 170115Z AUTO 00000KT 10SM CLR 08/06 A3032 RMK AO2 T00840055
KCUL 170055Z AUTO 00000KT 10SM CLR 08/05 A3032 RMK AO2 T00840048
KCUL 170035Z AUTO 00000KT 10SM CLR 10/04 A3032 RMK AO2 T00990039
KCUL 170015Z AUTO 00000KT 10SM CLR 11/04 A3031 RMK AO2 T01050042
KCUL 162355Z AUTO 00000KT 10SM CLR 11/04 A3030 RMK AO2 T01120042 10183 20106
KCUL 162335Z AUTO 00000KT 10SM CLR 14/03 A3030 RMK AO2 T01370025
KCUL 162315Z AUTO 00000KT 10SM CLR 14/03 A3030 RMK AO2 T01420026
KCUL 162255Z AUTO 00000KT 10SM CLR 15/03 A3030 RMK AO2 T01530028
KCUL 162235Z AUTO 35004KT 10SM CLR 16/03 A3030 RMK AO2 T01640025
KCUL 162215Z AUTO 36004KT 10SM CLR 17/02 A3030 RMK AO2 T01710017
KCUL 162155Z AUTO 01003KT 10SM CLR 17/01 A3031 RMK AO2 T01720012
KCUL 162135Z AUTO 35009KT 10SM CLR 18/02 A3031 RMK AO2 T01750016
KCUL 162115Z AUTO 03004KT 10SM CLR 18/02 A3031 RMK AO2 T01770017
KCUL 162055Z AUTO 35004KT 10SM CLR 18/01 A3031 RMK AO2 T01750014
KCUL 162035Z AUTO 36010KT 10SM CLR 18/01 A3032 RMK AO2 T01800014
KCUL 162015Z AUTO 33003KT 10SM CLR 18/02 A3032 RMK AO2 T01810015
KCUL 161955Z AUTO 00000KT 10SM CLR 18/02 A3032 RMK AO2 T01750020
KCUL 161935Z AUTO 34007KT 10SM CLR 18/02 A3032 RMK AO2 T01780018
KCUL 161915Z AUTO 02007KT 10SM CLR 18/02 A3033 RMK AO2 T01780019
KCUL 161855Z AUTO 01009KT 10SM CLR 18/02 A3034 RMK AO2 T01760019
KCUL 161835Z AUTO 35008KT 7SM CLR 18/02 A3035 RMK AO2 T01750018
KCUL 161815Z AUTO 36009KT 7SM CLR 17/02 A3036 RMK AO2 T01700021
KCUL 161755Z AUTO 36005KT 10SM CLR 17/02 A3036 RMK AO2 T01650020 10165 20040
KCUL 161735Z AUTO 00000KT 10SM CLR 16/02 A3037 RMK AO2 T01570015
KCUL 161715Z AUTO 36006KT 10SM CLR 16/03 A3038 RMK AO2 T01550025
KCUL 161655Z AUTO 36008KT 10SM CLR 15/04 A3039 RMK AO2 T01500036
KCUL 161635Z AUTO 34006KT 10SM CLR 15/04 A3039 RMK AO2 T01450038
KCUL 161615Z AUTO 35007KT 10SM CLR 15/04 A3040 RMK AO2 T01450042
KCUL 161555Z AUTO 34007KT 10SM CLR 14/04 A3040 RMK AO2 T01360043
KCUL 161535Z AUTO 01008KT 10SM CLR 13/05 A3040 RMK AO2 T01330053
KCUL 161515Z AUTO 36008KT 10SM CLR 13/06 A3040 RMK AO2 T01270056
KCUL 161455Z AUTO 02006KT 10SM CLR 12/06 A3039 RMK AO2 T01180058
KCUL 161435Z AUTO 01008KT 10SM CLR 11/06 A3039 RMK AO2 T01080061
KCUL 161415Z AUTO 36008KT 10SM CLR 10/06 A3038 RMK AO2 T01020063
KCUL 161355Z AUTO 36005KT 10SM CLR 10/06 A3038 RMK AO2 T00980062
KCUL 161335Z AUTO 34006KT 10SM CLR 09/06 A3038 RMK AO2 T00880062
KCUL 161315Z AUTO 33003KT 10SM CLR 08/06 A3037 RMK AO2 T00760060
KCUL 161255Z AUTO 32003KT 10SM CLR 07/06 A3036 RMK AO2 T00660056
KCUL 161235Z AUTO 00000KT 10SM CLR 05/05 A3036 RMK AO2 T00500045
KCUL 161215Z AUTO 00000KT 10SM CLR 04/04 A3035 RMK AO2 T00430040
KCUL 161155Z AUTO 32003KT 10SM CLR 04/04 A3035 RMK AO2 T00430038 10089 20042
KCUL 161135Z AUTO 32005KT 10SM CLR 05/04 A3035 RMK AO2 T00470041
KCUL 161115Z AUTO 31003KT 10SM CLR 05/04 A3034 RMK AO2 T00480041
KCUL 161055Z AUTO 32004KT 10SM CLR 05/04 A3034 RMK AO2 T00510041
KCUL 161035Z AUTO 32005KT 10SM CLR 06/05 A3033 RMK AO2 T00580046
KCUL 161015Z AUTO 31004KT 10SM CLR 06/05 A3033 RMK AO2 T00590046
KCUL 160955Z AUTO 31005KT 10SM CLR 06/05 A3033 RMK AO2 T00580046
KCUL 160935Z AUTO 31005KT 10SM CLR 06/05 A3032 RMK AO2 T00580047
KCUL 160915Z AUTO 30005KT 10SM CLR 05/04 A3032 RMK AO2 T00540043
KCUL 160855Z AUTO 30004KT 10SM CLR 05/04 A3032 RMK AO2 T00520040
KCUL 160835Z AUTO 29004KT 10SM CLR 06/04 A3031 RMK AO2 T00600044
KCUL 160815Z AUTO 29004KT 10SM CLR 07/05 A3031 RMK AO2 T00650045
KCUL 160755Z AUTO 29004KT 10SM CLR 06/04 A3031 RMK AO2 T00640044
KCUL 160735Z AUTO 29004KT 10SM CLR 07/05 A3031 RMK AO2 T00700046
KCUL 160715Z AUTO 31004KT 10SM CLR 07/05 A3031 RMK AO2 T00720046
KCUL 160655Z AUTO 31004KT 10SM CLR 08/05 A3031 RMK AO2 T00750046
KCUL 160635Z AUTO 31004KT 10SM CLR 08/05 A3030 RMK AO2 T00800045
KCUL 160615Z AUTO 31004KT 10SM CLR 08/05 A3030 RMK AO2 T00840046
KCUL 160555Z AUTO 32004KT 10SM SCT043 09/05 A3030 RMK AO2 T00900049 10131 20090 402300090
KCUL 160535Z AUTO 33004KT 10SM OVC043 10/06 A3030 RMK AO2 T01030055
KCUL 160515Z AUTO 34006KT 10SM OVC043 11/06 A3030 RMK AO2 T01100055
KCUL 160455Z AUTO 34005KT 10SM OVC043 11/06 A3030 RMK AO2 T01100056
KCUL 160435Z AUTO 34006KT 10SM OVC043 11/05 A3030 RMK AO2 T01130054
KCUL 160415Z AUTO 34007KT 10SM OVC041 11/05 A3030 RMK AO2 T01140054
KCUL 160355Z AUTO 33008KT 10SM OVC041 11/06 A3030 RMK AO2 T01130055
KCUL 160335Z AUTO 33009KT 10SM OVC039 11/06 A3030 RMK AO2 T01100058
KCUL 160315Z AUTO 34008KT 10SM BKN039 11/06 A3029 RMK AO2 T01050061
KCUL 160255Z AUTO 33006KT 10SM SCT039 10/06 A3029 RMK AO2 T00980064
KCUL 160235Z AUTO 34005KT 10SM SCT039 10/07 A3028 RMK AO2 T01010065
KCUL 160215Z AUTO 34007KT 10SM CLR 11/07 A3027 RMK AO2 T01050066
KCUL 160155Z AUTO 34008KT 10SM SCT042 11/07 A3026 RMK AO2 T01100068
KCUL 160135Z AUTO 34009KT 10SM BKN042 12/07 A3025 RMK AO2 T01160070
KCUL 160115Z AUTO 34008KT 10SM OVC042 12/07 A3025 RMK AO2 T01230071
KCUL 160055Z AUTO 35011KT 10SM SCT042 12/07 A3024 RMK AO2 T01180070
KCUL 160035Z AUTO 34007KT 10SM CLR 11/07 A3023 RMK AO2 T01120070
KCUL 160015Z AUTO 33006KT 10SM CLR 12/07 A3022 RMK AO2 T01210070
KCUL 152355Z AUTO 34008KT 10SM CLR 13/07 A3021 RMK AO2 T01330070 10166 20130
KCUL 152335Z AUTO 32011KT 10SM SCT040 14/08 A3020 RMK AO2 T01360075
KCUL 152315Z AUTO 32009KT 10SM SCT038 14/08 A3019 RMK AO2 T01400076
KCUL 152255Z AUTO 33010KT 10SM CLR 15/08 A3018 RMK AO2 T01480075
KCUL 152235Z AUTO 34014G18KT 10SM CLR 16/07 A3017 RMK AO2 T01550074
KCUL 152215Z AUTO 34015KT 10SM CLR 16/07 A3016 RMK AO2 T01580074
KCUL 152155Z AUTO 34013KT 10SM CLR 16/08 A3015 RMK AO2 T01600075
KCUL 152135Z AUTO 33013G19KT 10SM CLR 16/08 A3015 RMK AO2 T01620075
KCUL 152115Z AUTO 33015G21KT 10SM CLR 17/08 A3015 RMK AO2 T01650079
KCUL 152055Z AUTO 32012KT 10SM CLR 16/09 A3014 RMK AO2 T01640085
KCUL 152035Z AUTO 34016G19KT 10SM CLR 16/09 A3014 RMK AO2 T01630087
KCUL 152015Z AUTO 33015G19KT 10SM SCT030 15/09 A3015 RMK AO2 T01520085
KCUL 151955Z AUTO 32014G19KT 10SM BKN028 16/09 A3014 RMK AO2 T01560089
KCUL 151935Z AUTO 31014G21KT 10SM BKN028 15/09 A3014 RMK AO2 T01460089
KCUL 151915Z AUTO 31012G24KT 10SM BKN026 BKN080 14/09 A3014 RMK AO2 T01390092
KCUL 151855Z AUTO 31017G24KT 10SM BKN022 OVC080 14/10 A3014 RMK AO2 T01380096
KCUL 151835Z AUTO 31018G24KT 10SM OVC020 14/10 A3014 RMK AO2 T01360103
KCUL 151815Z AUTO 32016G21KT 10SM SCT014 OVC021 13/11 A3014 RMK AO2 T01320108
KCUL 151755Z AUTO 31012G19KT 10SM OVC014 13/11 A3014 RMK AO2 T01300113 10223 20130
KCUL 151735Z AUTO 32015KT 10SM OVC012 13/12 A3013 RMK AO2 T01310119
KCUL 151715Z AUTO 30016G23KT 7SM -DZ OVC014 13/12 A3012 RMK AO2 T01320120
KCUL 151655Z AUTO 30017KT 5SM RA OVC015 14/13 A3013 RMK AO2 P0003 T01400130
KCUL 151635Z AUTO 30013G22KT 7SM -RA BKN015 BKN024 OVC035 14/13 A3012 RMK AO2 P0002 T01410130
KCUL 151615Z AUTO 32014G20KT 7SM RA SCT014 BKN019 OVC033 15/14 A3009 RMK AO2 P0001 T01470136
KCUL 151555Z AUTO 31014G24KT 10SM -RA BKN014 BKN019 OVC033 15/14 A3009 RMK AO2 P0001 T01500138
KCUL 151535Z AUTO 31016G25KT 7SM -RA SCT011 OVC017 15/14 A3006 RMK AO2 P0001 T01510140
KCUL 151515Z AUTO 31020G29KT 5SM -RA BKN011 OVC016 17/16 A3006 RMK AO2 T01700159
KCUL 151455Z AUTO 26013G19KT 3SM -DZ BKN013 BKN023 OVC036 19/19 A3003 RMK AO2 P0001 60001 T01900185
KCUL 151435Z AUTO 22008KT 10SM -RA BKN035 OVC110 19/18 A3001 RMK AO2 T01900183
KCUL 151415Z AUTO 21006KT 10SM OVC110 19/19 A3001 RMK AO2 T01900185
KCUL 151355Z AUTO 20005KT 10SM OVC100 19/18 A2999 RMK AO2 P0002 T01870184